sensor_id;sensor_type;location;lat;lon;timestamp;P1;durP1;ratioP1;P2;durP2;ratioP2
70832;SDS011;58452;59.418;17.962;2022-11-15T00:00:25;1.70;;;1.33;;
70832;SDS011;58452;59.418;17.962;2022-11-15T00:02:54;2.47;;;1.75;;
70832;SDS011;58452;59.418;17.962;2022-11-15T00:05:20;1.52;;;1.40;;
70832;SDS011;58452;59.418;17.962;2022-11-15T00:07:45;1.60;;;1.50;;
70832;SDS011;58452;59.418;17.962;2022-11-15T00:10:11;2.17;;;1.48;;
70832;SDS011;58452;59.418;17.962;2022-11-15T00:12:36;2.38;;;1.50;;
70832;SDS011;58452;59.418;17.962;2022-11-15T00:15:02;1.52;;;1.20;;
70832;SDS011;58452;59.418;17.962;2022-11-15T00:17:28;2.72;;;1.58;;
70832;SDS011;58452;59.418;17.962;2022-11-15T00:19:53;1.95;;;1.23;;
70832;SDS011;58452;59.418;17.962;2022-11-15T00:22:18;1.17;;;0.82;;
70832;SDS011;58452;59.418;17.962;2022-11-15T00:24:44;1.58;;;1.48;;
70832;SDS011;58452;59.418;17.962;2022-11-15T00:27:09;1.75;;;1.63;;
70832;SDS011;58452;59.418;17.962;2022-11-15T00:29:34;2.90;;;1.23;;
70832;SDS011;58452;59.418;17.962;2022-11-15T00:32:02;1.30;;;1.05;;
70832;SDS011;58452;59.418;17.962;2022-11-15T00:34:27;1.50;;;1.20;;
70832;SDS011;58452;59.418;17.962;2022-11-15T00:36:53;1.42;;;1.10;;
70832;SDS011;58452;59.418;17.962;2022-11-15T00:39:18;1.85;;;1.40;;
70832;SDS011;58452;59.418;17.962;2022-11-15T00:41:43;2.42;;;1.58;;
70832;SDS011;58452;59.418;17.962;2022-11-15T00:44:09;2.30;;;1.65;;
70832;SDS011;58452;59.418;17.962;2022-11-15T00:46:34;2.10;;;1.77;;
70832;SDS011;58452;59.418;17.962;2022-11-15T00:48:59;3.45;;;1.60;;
70832;SDS011;58452;59.418;17.962;2022-11-15T00:51:25;2.70;;;1.25;;
70832;SDS011;58452;59.418;17.962;2022-11-15T00:53:50;2.47;;;1.60;;
70832;SDS011;58452;59.418;17.962;2022-11-15T00:56:15;3.30;;;1.58;;
70832;SDS011;58452;59.418;17.962;2022-11-15T00:58:41;2.30;;;1.58;;
70832;SDS011;58452;59.418;17.962;2022-11-15T01:01:07;1.65;;;1.48;;
70832;SDS011;58452;59.418;17.962;2022-11-15T01:03:38;2.42;;;1.70;;
70832;SDS011;58452;59.418;17.962;2022-11-15T01:06:05;3.05;;;1.50;;
70832;SDS011;58452;59.418;17.962;2022-11-15T01:08:31;1.63;;;1.42;;
70832;SDS011;58452;59.418;17.962;2022-11-15T01:11:03;0.88;;;0.70;;
70832;SDS011;58452;59.418;17.962;2022-11-15T01:13:31;0.70;;;0.60;;
70832;SDS011;58452;59.418;17.962;2022-11-15T01:15:58;0.95;;;0.77;;
70832;SDS011;58452;59.418;17.962;2022-11-15T01:18:24;1.25;;;0.93;;
70832;SDS011;58452;59.418;17.962;2022-11-15T01:20:50;1.30;;;0.70;;
70832;SDS011;58452;59.418;17.962;2022-11-15T01:23:16;0.70;;;0.32;;
70832;SDS011;58452;59.418;17.962;2022-11-15T01:25:41;1.63;;;0.32;;
70832;SDS011;58452;59.418;17.962;2022-11-15T01:28:06;0.43;;;0.43;;
70832;SDS011;58452;59.418;17.962;2022-11-15T01:30:32;0.50;;;0.50;;
70832;SDS011;58452;59.418;17.962;2022-11-15T01:32:57;0.52;;;0.38;;
70832;SDS011;58452;59.418;17.962;2022-11-15T01:35:23;1.02;;;0.68;;
70832;SDS011;58452;59.418;17.962;2022-11-15T01:37:48;2.05;;;0.55;;
70832;SDS011;58452;59.418;17.962;2022-11-15T01:40:14;0.95;;;0.70;;
70832;SDS011;58452;59.418;17.962;2022-11-15T01:42:39;0.85;;;0.60;;
70832;SDS011;58452;59.418;17.962;2022-11-15T01:45:05;1.45;;;1.00;;
70832;SDS011;58452;59.418;17.962;2022-11-15T01:47:40;0.85;;;0.82;;
70832;SDS011;58452;59.418;17.962;2022-11-15T01:50:10;1.05;;;0.95;;
70832;SDS011;58452;59.418;17.962;2022-11-15T01:52:39;1.40;;;1.13;;
70832;SDS011;58452;59.418;17.962;2022-11-15T01:57:44;2.25;;;2.03;;
70832;SDS011;58452;59.418;17.962;2022-11-15T02:00:12;2.28;;;1.90;;
70832;SDS011;58452;59.418;17.962;2022-11-15T02:02:38;2.50;;;2.00;;
70832;SDS011;58452;59.418;17.962;2022-11-15T02:05:04;2.50;;;1.80;;
70832;SDS011;58452;59.418;17.962;2022-11-15T02:07:29;2.63;;;1.90;;
70832;SDS011;58452;59.418;17.962;2022-11-15T02:09:59;2.55;;;2.00;;
70832;SDS011;58452;59.418;17.962;2022-11-15T02:12:31;3.40;;;1.70;;
70832;SDS011;58452;59.418;17.962;2022-11-15T02:14:57;2.63;;;2.22;;
70832;SDS011;58452;59.418;17.962;2022-11-15T02:31:03;1.55;;;1.33;;
70832;SDS011;58452;59.418;17.962;2022-11-15T02:34:10;2.13;;;1.85;;
70832;SDS011;58452;59.418;17.962;2022-11-15T02:42:13;2.53;;;1.45;;
70832;SDS011;58452;59.418;17.962;2022-11-15T02:45:04;1.48;;;1.30;;
70832;SDS011;58452;59.418;17.962;2022-11-15T02:47:37;1.80;;;1.60;;
70832;SDS011;58452;59.418;17.962;2022-11-15T02:50:10;3.92;;;1.52;;
70832;SDS011;58452;59.418;17.962;2022-11-15T02:52:37;2.20;;;1.63;;
70832;SDS011;58452;59.418;17.962;2022-11-15T02:55:03;1.23;;;1.10;;
70832;SDS011;58452;59.418;17.962;2022-11-15T03:00:27;1.75;;;1.60;;
70832;SDS011;58452;59.418;17.962;2022-11-15T03:06:09;1.98;;;1.70;;
70832;SDS011;58452;59.418;17.962;2022-11-15T03:11:15;1.98;;;1.17;;
70832;SDS011;58452;59.418;17.962;2022-11-15T03:13:52;1.55;;;1.42;;
70832;SDS011;58452;59.418;17.962;2022-11-15T03:19:47;1.23;;;1.13;;
70832;SDS011;58452;59.418;17.962;2022-11-15T03:22:18;1.98;;;1.73;;
70832;SDS011;58452;59.418;17.962;2022-11-15T03:24:50;1.58;;;1.48;;
70832;SDS011;58452;59.418;17.962;2022-11-15T03:27:19;1.80;;;1.70;;
70832;SDS011;58452;59.418;17.962;2022-11-15T03:29:51;1.67;;;1.55;;
70832;SDS011;58452;59.418;17.962;2022-11-15T03:32:21;1.90;;;1.70;;
70832;SDS011;58452;59.418;17.962;2022-11-15T03:34:55;1.75;;;1.58;;
70832;SDS011;58452;59.418;17.962;2022-11-15T03:37:30;2.57;;;2.03;;
70832;SDS011;58452;59.418;17.962;2022-11-15T03:40:01;3.20;;;1.90;;
70832;SDS011;58452;59.418;17.962;2022-11-15T03:42:30;1.83;;;1.63;;
70832;SDS011;58452;59.418;17.962;2022-11-15T03:45:23;3.25;;;2.17;;
70832;SDS011;58452;59.418;17.962;2022-11-15T03:50:51;2.42;;;2.22;;
70832;SDS011;58452;59.418;17.962;2022-11-15T03:53:17;2.70;;;2.40;;
70832;SDS011;58452;59.418;17.962;2022-11-15T03:55:43;3.55;;;2.20;;
70832;SDS011;58452;59.418;17.962;2022-11-15T03:58:08;8.45;;;2.08;;
70832;SDS011;58452;59.418;17.962;2022-11-15T04:00:34;3.08;;;2.50;;
70832;SDS011;58452;59.418;17.962;2022-11-15T04:02:59;3.65;;;2.90;;
70832;SDS011;58452;59.418;17.962;2022-11-15T04:05:25;2.85;;;2.50;;
70832;SDS011;58452;59.418;17.962;2022-11-15T04:07:50;3.78;;;2.78;;
70832;SDS011;58452;59.418;17.962;2022-11-15T04:10:16;3.30;;;3.00;;
70832;SDS011;58452;59.418;17.962;2022-11-15T04:12:42;2.72;;;2.38;;
70832;SDS011;58452;59.418;17.962;2022-11-15T04:15:21;2.80;;;2.40;;
70832;SDS011;58452;59.418;17.962;2022-11-15T04:17:51;3.05;;;2.35;;
70832;SDS011;58452;59.418;17.962;2022-11-15T04:20:20;2.97;;;2.63;;
70832;SDS011;58452;59.418;17.962;2022-11-15T04:23:09;2.92;;;2.35;;
70832;SDS011;58452;59.418;17.962;2022-11-15T04:25:58;2.55;;;2.17;;
70832;SDS011;58452;59.418;17.962;2022-11-15T04:28:25;2.35;;;2.08;;
70832;SDS011;58452;59.418;17.962;2022-11-15T04:30:51;2.42;;;2.15;;
70832;SDS011;58452;59.418;17.962;2022-11-15T04:33:17;3.50;;;1.73;;
70832;SDS011;58452;59.418;17.962;2022-11-15T04:35:42;3.17;;;2.10;;
70832;SDS011;58452;59.418;17.962;2022-11-15T04:38:09;2.35;;;2.15;;
70832;SDS011;58452;59.418;17.962;2022-11-15T04:40:36;2.58;;;2.33;;
70832;SDS011;58452;59.418;17.962;2022-11-15T04:43:02;3.40;;;2.05;;
70832;SDS011;58452;59.418;17.962;2022-11-15T04:45:28;3.25;;;2.47;;
70832;SDS011;58452;59.418;17.962;2022-11-15T04:47:54;3.45;;;1.80;;
70832;SDS011;58452;59.418;17.962;2022-11-15T04:50:19;2.38;;;2.00;;
70832;SDS011;58452;59.418;17.962;2022-11-15T04:52:51;2.90;;;2.00;;
70832;SDS011;58452;59.418;17.962;2022-11-15T04:55:18;3.45;;;2.53;;
70832;SDS011;58452;59.418;17.962;2022-11-15T04:57:44;3.25;;;2.20;;
70832;SDS011;58452;59.418;17.962;2022-11-15T05:00:10;4.05;;;2.40;;
70832;SDS011;58452;59.418;17.962;2022-11-15T05:02:38;8.02;;;2.70;;
70832;SDS011;58452;59.418;17.962;2022-11-15T05:05:22;2.15;;;1.95;;
70832;SDS011;58452;59.418;17.962;2022-11-15T05:07:48;2.85;;;2.08;;
70832;SDS011;58452;59.418;17.962;2022-11-15T05:10:14;2.83;;;2.50;;
70832;SDS011;58452;59.418;17.962;2022-11-15T05:12:39;3.92;;;2.25;;
70832;SDS011;58452;59.418;17.962;2022-11-15T05:15:05;2.97;;;2.33;;
70832;SDS011;58452;59.418;17.962;2022-11-15T05:17:30;4.72;;;2.28;;
70832;SDS011;58452;59.418;17.962;2022-11-15T05:19:56;2.50;;;2.25;;
70832;SDS011;58452;59.418;17.962;2022-11-15T05:22:21;5.80;;;2.55;;
70832;SDS011;58452;59.418;17.962;2022-11-15T05:24:47;6.63;;;3.03;;
70832;SDS011;58452;59.418;17.962;2022-11-15T05:27:12;3.30;;;2.28;;
70832;SDS011;58452;59.418;17.962;2022-11-15T05:29:38;3.63;;;2.38;;
70832;SDS011;58452;59.418;17.962;2022-11-15T05:32:04;3.60;;;3.00;;
70832;SDS011;58452;59.418;17.962;2022-11-15T05:34:31;4.18;;;1.95;;
70832;SDS011;58452;59.418;17.962;2022-11-15T05:36:57;2.92;;;1.92;;
70832;SDS011;58452;59.418;17.962;2022-11-15T05:39:22;3.47;;;2.60;;
70832;SDS011;58452;59.418;17.962;2022-11-15T05:41:48;4.75;;;2.38;;
70832;SDS011;58452;59.418;17.962;2022-11-15T05:44:21;2.83;;;1.75;;
70832;SDS011;58452;59.418;17.962;2022-11-15T05:46:51;3.35;;;2.20;;
70832;SDS011;58452;59.418;17.962;2022-11-15T05:49:20;4.72;;;2.10;;
70832;SDS011;58452;59.418;17.962;2022-11-15T05:51:49;3.50;;;2.20;;
70832;SDS011;58452;59.418;17.962;2022-11-15T05:54:15;3.65;;;1.85;;
70832;SDS011;58452;59.418;17.962;2022-11-15T05:56:41;4.45;;;2.15;;
70832;SDS011;58452;59.418;17.962;2022-11-15T05:59:07;2.45;;;1.50;;
70832;SDS011;58452;59.418;17.962;2022-11-15T06:01:33;4.85;;;2.35;;
70832;SDS011;58452;59.418;17.962;2022-11-15T06:03:59;5.10;;;1.63;;
70832;SDS011;58452;59.418;17.962;2022-11-15T06:06:24;3.67;;;2.08;;
70832;SDS011;58452;59.418;17.962;2022-11-15T06:08:52;3.58;;;1.40;;
70832;SDS011;58452;59.418;17.962;2022-11-15T06:11:17;8.18;;;1.30;;
70832;SDS011;58452;59.418;17.962;2022-11-15T06:13:43;4.10;;;1.00;;
70832;SDS011;58452;59.418;17.962;2022-11-15T06:16:08;2.55;;;1.50;;
70832;SDS011;58452;59.418;17.962;2022-11-15T06:18:33;5.20;;;2.42;;
70832;SDS011;58452;59.418;17.962;2022-11-15T06:20:59;3.75;;;0.98;;
70832;SDS011;58452;59.418;17.962;2022-11-15T06:23:26;5.00;;;1.00;;
70832;SDS011;58452;59.418;17.962;2022-11-15T06:25:51;2.88;;;1.67;;
70832;SDS011;58452;59.418;17.962;2022-11-15T06:28:17;4.10;;;1.20;;
70832;SDS011;58452;59.418;17.962;2022-11-15T06:30:42;4.57;;;1.00;;
70832;SDS011;58452;59.418;17.962;2022-11-15T06:33:07;4.90;;;2.55;;
70832;SDS011;58452;59.418;17.962;2022-11-15T06:35:34;3.90;;;0.90;;
70832;SDS011;58452;59.418;17.962;2022-11-15T06:38:05;3.28;;;0.98;;
70832;SDS011;58452;59.418;17.962;2022-11-15T06:40:33;2.28;;;1.15;;
70832;SDS011;58452;59.418;17.962;2022-11-15T06:42:59;1.95;;;1.08;;
70832;SDS011;58452;59.418;17.962;2022-11-15T06:45:25;3.75;;;1.05;;
70832;SDS011;58452;59.418;17.962;2022-11-15T06:47:51;4.28;;;0.90;;
70832;SDS011;58452;59.418;17.962;2022-11-15T06:50:16;2.42;;;0.93;;
70832;SDS011;58452;59.418;17.962;2022-11-15T06:52:42;2.40;;;1.25;;
70832;SDS011;58452;59.418;17.962;2022-11-15T06:55:08;5.15;;;1.25;;
70832;SDS011;58452;59.418;17.962;2022-11-15T06:57:34;3.53;;;1.15;;
70832;SDS011;58452;59.418;17.962;2022-11-15T07:00:11;4.40;;;0.90;;
70832;SDS011;58452;59.418;17.962;2022-11-15T07:02:37;3.38;;;1.25;;
70832;SDS011;58452;59.418;17.962;2022-11-15T07:05:02;3.45;;;1.33;;
70832;SDS011;58452;59.418;17.962;2022-11-15T07:07:27;4.55;;;1.17;;
70832;SDS011;58452;59.418;17.962;2022-11-15T07:09:54;4.28;;;0.88;;
70832;SDS011;58452;59.418;17.962;2022-11-15T07:12:20;3.38;;;1.05;;
70832;SDS011;58452;59.418;17.962;2022-11-15T07:14:45;1.75;;;0.90;;
70832;SDS011;58452;59.418;17.962;2022-11-15T07:17:11;3.05;;;0.68;;
70832;SDS011;58452;59.418;17.962;2022-11-15T07:19:36;1.55;;;0.68;;
70832;SDS011;58452;59.418;17.962;2022-11-15T07:22:01;2.75;;;1.30;;
70832;SDS011;58452;59.418;17.962;2022-11-15T07:24:27;3.28;;;1.00;;
70832;SDS011;58452;59.418;17.962;2022-11-15T07:26:53;9.35;;;1.05;;
70832;SDS011;58452;59.418;17.962;2022-11-15T07:29:18;0.85;;;0.70;;
70832;SDS011;58452;59.418;17.962;2022-11-15T07:31:43;2.72;;;0.95;;
70832;SDS011;58452;59.418;17.962;2022-11-15T07:34:09;2.47;;;1.00;;
70832;SDS011;58452;59.418;17.962;2022-11-15T07:36:34;1.75;;;1.02;;
70832;SDS011;58452;59.418;17.962;2022-11-15T07:39:00;1.00;;;0.55;;
70832;SDS011;58452;59.418;17.962;2022-11-15T07:41:25;3.65;;;1.02;;
70832;SDS011;58452;59.418;17.962;2022-11-15T07:43:51;4.95;;;1.10;;
70832;SDS011;58452;59.418;17.962;2022-11-15T07:46:17;5.70;;;0.85;;
70832;SDS011;58452;59.418;17.962;2022-11-15T07:48:42;4.15;;;1.02;;
70832;SDS011;58452;59.418;17.962;2022-11-15T07:51:10;2.33;;;0.70;;
70832;SDS011;58452;59.418;17.962;2022-11-15T07:53:37;3.58;;;1.08;;
70832;SDS011;58452;59.418;17.962;2022-11-15T07:56:02;2.35;;;1.00;;
70832;SDS011;58452;59.418;17.962;2022-11-15T07:58:31;1.92;;;0.80;;
70832;SDS011;58452;59.418;17.962;2022-11-15T08:00:57;3.17;;;0.80;;
70832;SDS011;58452;59.418;17.962;2022-11-15T08:03:22;4.13;;;0.90;;
70832;SDS011;58452;59.418;17.962;2022-11-15T08:05:52;3.10;;;0.77;;
70832;SDS011;58452;59.418;17.962;2022-11-15T08:08:17;2.22;;;0.98;;
70832;SDS011;58452;59.418;17.962;2022-11-15T08:10:43;4.80;;;0.90;;
70832;SDS011;58452;59.418;17.962;2022-11-15T08:13:09;7.03;;;1.70;;
70832;SDS011;58452;59.418;17.962;2022-11-15T08:15:36;3.47;;;1.02;;
70832;SDS011;58452;59.418;17.962;2022-11-15T08:18:03;5.40;;;1.27;;
70832;SDS011;58452;59.418;17.962;2022-11-15T08:20:30;3.00;;;0.80;;
70832;SDS011;58452;59.418;17.962;2022-11-15T08:22:57;3.38;;;1.48;;
70832;SDS011;58452;59.418;17.962;2022-11-15T08:25:24;1.13;;;0.68;;
70832;SDS011;58452;59.418;17.962;2022-11-15T08:27:54;2.70;;;0.60;;
70832;SDS011;58452;59.418;17.962;2022-11-15T08:30:21;1.88;;;0.77;;
70832;SDS011;58452;59.418;17.962;2022-11-15T08:32:47;2.60;;;0.65;;
70832;SDS011;58452;59.418;17.962;2022-11-15T08:35:14;3.50;;;0.95;;
70832;SDS011;58452;59.418;17.962;2022-11-15T08:37:39;2.20;;;0.60;;
70832;SDS011;58452;59.418;17.962;2022-11-15T08:40:05;2.10;;;1.13;;
70832;SDS011;58452;59.418;17.962;2022-11-15T08:42:31;3.25;;;1.20;;
70832;SDS011;58452;59.418;17.962;2022-11-15T08:44:56;5.43;;;1.48;;
70832;SDS011;58452;59.418;17.962;2022-11-15T08:47:21;1.05;;;0.68;;
70832;SDS011;58452;59.418;17.962;2022-11-15T08:49:47;3.17;;;0.88;;
70832;SDS011;58452;59.418;17.962;2022-11-15T08:52:13;5.00;;;0.65;;
70832;SDS011;58452;59.418;17.962;2022-11-15T08:54:39;2.00;;;0.60;;
70832;SDS011;58452;59.418;17.962;2022-11-15T08:57:04;1.33;;;0.60;;
70832;SDS011;58452;59.418;17.962;2022-11-15T08:59:30;2.20;;;0.50;;
70832;SDS011;58452;59.418;17.962;2022-11-15T09:01:55;1.38;;;0.35;;
70832;SDS011;58452;59.418;17.962;2022-11-15T09:04:20;3.47;;;0.80;;
70832;SDS011;58452;59.418;17.962;2022-11-15T09:06:46;2.17;;;0.77;;
70832;SDS011;58452;59.418;17.962;2022-11-15T09:09:11;0.65;;;0.55;;
70832;SDS011;58452;59.418;17.962;2022-11-15T09:11:36;0.60;;;0.28;;
70832;SDS011;58452;59.418;17.962;2022-11-15T09:14:02;2.10;;;0.60;;
70832;SDS011;58452;59.418;17.962;2022-11-15T09:16:27;1.90;;;0.40;;
70832;SDS011;58452;59.418;17.962;2022-11-15T09:18:55;2.20;;;0.70;;
70832;SDS011;58452;59.418;17.962;2022-11-15T09:21:20;0.93;;;0.50;;
70832;SDS011;58452;59.418;17.962;2022-11-15T09:23:46;2.20;;;0.73;;
70832;SDS011;58452;59.418;17.962;2022-11-15T09:26:11;1.83;;;1.02;;
70832;SDS011;58452;59.418;17.962;2022-11-15T09:28:36;3.60;;;0.70;;
70832;SDS011;58452;59.418;17.962;2022-11-15T09:31:03;2.35;;;0.70;;
70832;SDS011;58452;59.418;17.962;2022-11-15T09:33:30;0.52;;;0.52;;
70832;SDS011;58452;59.418;17.962;2022-11-15T09:36:03;1.20;;;0.40;;
70832;SDS011;58452;59.418;17.962;2022-11-15T09:38:30;2.55;;;0.93;;
70832;SDS011;58452;59.418;17.962;2022-11-15T09:47:03;2.08;;;0.45;;
70832;SDS011;58452;59.418;17.962;2022-11-15T09:49:54;0.77;;;0.70;;
70832;SDS011;58452;59.418;17.962;2022-11-15T09:52:23;0.70;;;0.38;;
70832;SDS011;58452;59.418;17.962;2022-11-15T09:54:50;1.60;;;0.73;;
70832;SDS011;58452;59.418;17.962;2022-11-15T10:05:23;4.13;;;0.50;;
70832;SDS011;58452;59.418;17.962;2022-11-15T10:13:13;2.28;;;0.85;;
70832;SDS011;58452;59.418;17.962;2022-11-15T10:15:44;0.50;;;0.30;;
70832;SDS011;58452;59.418;17.962;2022-11-15T10:18:17;3.00;;;0.50;;
70832;SDS011;58452;59.418;17.962;2022-11-15T10:21:00;2.50;;;0.68;;
70832;SDS011;58452;59.418;17.962;2022-11-15T10:23:38;0.88;;;0.30;;
70832;SDS011;58452;59.418;17.962;2022-11-15T10:26:04;1.45;;;0.80;;
70832;SDS011;58452;59.418;17.962;2022-11-15T10:28:35;5.90;;;0.80;;
70832;SDS011;58452;59.418;17.962;2022-11-15T10:31:01;1.42;;;0.68;;
70832;SDS011;58452;59.418;17.962;2022-11-15T10:41:16;1.23;;;0.60;;
70832;SDS011;58452;59.418;17.962;2022-11-15T10:49:26;2.97;;;1.23;;
70832;SDS011;58452;59.418;17.962;2022-11-15T10:51:55;1.17;;;0.65;;
70832;SDS011;58452;59.418;17.962;2022-11-15T10:56:55;1.33;;;0.70;;
70832;SDS011;58452;59.418;17.962;2022-11-15T10:59:29;3.10;;;0.57;;
70832;SDS011;58452;59.418;17.962;2022-11-15T11:01:58;2.75;;;0.93;;
70832;SDS011;58452;59.418;17.962;2022-11-15T11:04:24;2.40;;;1.10;;
70832;SDS011;58452;59.418;17.962;2022-11-15T11:06:57;1.08;;;0.60;;
70832;SDS011;58452;59.418;17.962;2022-11-15T11:09:31;0.85;;;0.80;;
70832;SDS011;58452;59.418;17.962;2022-11-15T11:11:58;2.20;;;0.90;;
70832;SDS011;58452;59.418;17.962;2022-11-15T11:14:26;2.42;;;1.00;;
70832;SDS011;58452;59.418;17.962;2022-11-15T11:49:43;2.75;;;1.17;;
70832;SDS011;58452;59.418;17.962;2022-11-15T11:52:29;2.33;;;0.70;;
70832;SDS011;58452;59.418;17.962;2022-11-15T11:55:12;1.77;;;1.05;;
70832;SDS011;58452;59.418;17.962;2022-11-15T12:03:59;1.42;;;0.60;;
70832;SDS011;58452;59.418;17.962;2022-11-15T12:06:46;1.10;;;0.60;;
70832;SDS011;58452;59.418;17.962;2022-11-15T12:12:17;3.15;;;0.90;;
70832;SDS011;58452;59.418;17.962;2022-11-15T12:15:01;2.38;;;0.85;;
70832;SDS011;58452;59.418;17.962;2022-11-15T12:17:36;2.28;;;0.73;;
70832;SDS011;58452;59.418;17.962;2022-11-15T12:20:04;3.35;;;1.98;;
70832;SDS011;58452;59.418;17.962;2022-11-15T12:22:43;2.38;;;1.13;;
70832;SDS011;58452;59.418;17.962;2022-11-15T12:25:17;3.30;;;0.80;;
70832;SDS011;58452;59.418;17.962;2022-11-15T12:28:03;5.07;;;0.88;;
70832;SDS011;58452;59.418;17.962;2022-11-15T12:30:43;1.17;;;1.05;;
70832;SDS011;58452;59.418;17.962;2022-11-15T12:33:48;3.85;;;1.10;;
70832;SDS011;58452;59.418;17.962;2022-11-15T12:41:29;0.98;;;0.70;;
70832;SDS011;58452;59.418;17.962;2022-11-15T12:43:55;1.25;;;0.80;;
70832;SDS011;58452;59.418;17.962;2022-11-15T12:49:03;3.35;;;0.95;;
70832;SDS011;58452;59.418;17.962;2022-11-15T13:02:24;1.65;;;1.08;;
70832;SDS011;58452;59.418;17.962;2022-11-15T13:04:52;1.30;;;1.02;;
70832;SDS011;58452;59.418;17.962;2022-11-15T13:10:01;2.88;;;1.17;;
70832;SDS011;58452;59.418;17.962;2022-11-15T13:17:38;2.25;;;0.80;;
70832;SDS011;58452;59.418;17.962;2022-11-15T13:22:49;4.80;;;0.82;;
70832;SDS011;58452;59.418;17.962;2022-11-15T13:30:38;2.92;;;0.90;;
70832;SDS011;58452;59.418;17.962;2022-11-15T13:33:19;2.53;;;0.65;;
70832;SDS011;58452;59.418;17.962;2022-11-15T13:35:56;3.10;;;1.00;;
70832;SDS011;58452;59.418;17.962;2022-11-15T13:40:49;2.40;;;0.65;;
70832;SDS011;58452;59.418;17.962;2022-11-15T13:48:52;2.38;;;0.68;;
70832;SDS011;58452;59.418;17.962;2022-11-15T13:56:37;4.13;;;0.85;;
70832;SDS011;58452;59.418;17.962;2022-11-15T13:59:10;2.63;;;1.33;;
70832;SDS011;58452;59.418;17.962;2022-11-15T14:01:41;7.43;;;1.38;;
70832;SDS011;58452;59.418;17.962;2022-11-15T14:04:10;2.20;;;1.05;;
70832;SDS011;58452;59.418;17.962;2022-11-15T14:06:43;1.00;;;0.80;;
70832;SDS011;58452;59.418;17.962;2022-11-15T14:09:31;2.17;;;1.20;;
70832;SDS011;58452;59.418;17.962;2022-11-15T14:14:59;1.70;;;0.93;;
70832;SDS011;58452;59.418;17.962;2022-11-15T14:17:45;1.58;;;0.95;;
70832;SDS011;58452;59.418;17.962;2022-11-15T14:22:52;0.52;;;0.50;;
70832;SDS011;58452;59.418;17.962;2022-11-15T14:25:23;1.67;;;0.82;;
70832;SDS011;58452;59.418;17.962;2022-11-15T14:28:10;2.05;;;1.30;;
70832;SDS011;58452;59.418;17.962;2022-11-15T14:30:55;2.50;;;0.70;;
70832;SDS011;58452;59.418;17.962;2022-11-15T14:36:05;1.65;;;0.80;;
70832;SDS011;58452;59.418;17.962;2022-11-15T14:38:35;2.88;;;0.98;;
70832;SDS011;58452;59.418;17.962;2022-11-15T14:41:01;2.42;;;1.15;;
70832;SDS011;58452;59.418;17.962;2022-11-15T14:43:26;3.80;;;0.85;;
70832;SDS011;58452;59.418;17.962;2022-11-15T14:45:52;2.20;;;0.85;;
70832;SDS011;58452;59.418;17.962;2022-11-15T14:48:17;3.85;;;1.17;;
70832;SDS011;58452;59.418;17.962;2022-11-15T14:50:42;3.47;;;0.90;;
70832;SDS011;58452;59.418;17.962;2022-11-15T14:53:13;2.13;;;0.80;;
70832;SDS011;58452;59.418;17.962;2022-11-15T14:55:40;2.10;;;0.90;;
70832;SDS011;58452;59.418;17.962;2022-11-15T14:58:06;2.83;;;0.70;;
70832;SDS011;58452;59.418;17.962;2022-11-15T15:00:35;5.13;;;1.13;;
70832;SDS011;58452;59.418;17.962;2022-11-15T15:03:02;3.03;;;0.80;;
70832;SDS011;58452;59.418;17.962;2022-11-15T15:07:57;1.95;;;0.90;;
70832;SDS011;58452;59.418;17.962;2022-11-15T15:10:22;3.22;;;0.70;;
70832;SDS011;58452;59.418;17.962;2022-11-15T15:12:55;1.27;;;0.95;;
70832;SDS011;58452;59.418;17.962;2022-11-15T15:15:23;2.45;;;0.90;;
70832;SDS011;58452;59.418;17.962;2022-11-15T15:17:51;1.92;;;0.80;;
70832;SDS011;58452;59.418;17.962;2022-11-15T15:20:16;2.10;;;0.57;;
70832;SDS011;58452;59.418;17.962;2022-11-15T15:22:42;1.48;;;0.68;;
70832;SDS011;58452;59.418;17.962;2022-11-15T15:25:15;1.10;;;0.70;;
70832;SDS011;58452;59.418;17.962;2022-11-15T15:27:46;1.13;;;0.68;;
70832;SDS011;58452;59.418;17.962;2022-11-15T15:30:11;1.20;;;0.60;;
70832;SDS011;58452;59.418;17.962;2022-11-15T15:32:37;2.30;;;0.60;;
70832;SDS011;58452;59.418;17.962;2022-11-15T15:35:02;3.88;;;1.05;;
70832;SDS011;58452;59.418;17.962;2022-11-15T15:37:28;4.55;;;1.08;;
70832;SDS011;58452;59.418;17.962;2022-11-15T15:39:55;4.60;;;0.90;;
70832;SDS011;58452;59.418;17.962;2022-11-15T15:42:21;2.13;;;0.77;;
70832;SDS011;58452;59.418;17.962;2022-11-15T15:44:48;2.92;;;0.68;;
70832;SDS011;58452;59.418;17.962;2022-11-15T15:47:15;0.95;;;0.65;;
70832;SDS011;58452;59.418;17.962;2022-11-15T15:49:43;0.82;;;0.40;;
70832;SDS011;58452;59.418;17.962;2022-11-15T15:52:09;0.82;;;0.50;;
70832;SDS011;58452;59.418;17.962;2022-11-15T15:54:34;2.13;;;1.05;;
70832;SDS011;58452;59.418;17.962;2022-11-15T15:57:00;4.35;;;0.65;;
70832;SDS011;58452;59.418;17.962;2022-11-15T15:59:25;2.40;;;1.00;;
70832;SDS011;58452;59.418;17.962;2022-11-15T16:01:50;1.88;;;0.90;;
70832;SDS011;58452;59.418;17.962;2022-11-15T16:04:16;2.78;;;0.90;;
70832;SDS011;58452;59.418;17.962;2022-11-15T16:06:41;1.23;;;0.95;;
70832;SDS011;58452;59.418;17.962;2022-11-15T16:09:19;3.42;;;0.73;;
70832;SDS011;58452;59.418;17.962;2022-11-15T16:12:07;3.88;;;0.65;;
70832;SDS011;58452;59.418;17.962;2022-11-15T16:14:32;2.33;;;0.88;;
70832;SDS011;58452;59.418;17.962;2022-11-15T16:16:58;4.95;;;0.65;;
70832;SDS011;58452;59.418;17.962;2022-11-15T16:19:23;1.85;;;0.60;;
70832;SDS011;58452;59.418;17.962;2022-11-15T16:21:49;2.20;;;0.60;;
70832;SDS011;58452;59.418;17.962;2022-11-15T16:24:17;2.55;;;0.80;;
70832;SDS011;58452;59.418;17.962;2022-11-15T16:26:43;2.35;;;0.90;;
70832;SDS011;58452;59.418;17.962;2022-11-15T16:29:09;0.93;;;0.63;;
70832;SDS011;58452;59.418;17.962;2022-11-15T16:31:38;1.70;;;1.08;;
70832;SDS011;58452;59.418;17.962;2022-11-15T16:34:03;2.53;;;0.77;;
70832;SDS011;58452;59.418;17.962;2022-11-15T16:36:30;0.93;;;0.80;;
70832;SDS011;58452;59.418;17.962;2022-11-15T16:38:57;1.13;;;0.63;;
70832;SDS011;58452;59.418;17.962;2022-11-15T16:41:23;4.65;;;1.23;;
70832;SDS011;58452;59.418;17.962;2022-11-15T16:43:48;2.00;;;0.60;;
70832;SDS011;58452;59.418;17.962;2022-11-15T16:46:18;1.40;;;0.90;;
70832;SDS011;58452;59.418;17.962;2022-11-15T16:48:45;2.70;;;0.90;;
70832;SDS011;58452;59.418;17.962;2022-11-15T16:51:10;2.67;;;0.90;;
70832;SDS011;58452;59.418;17.962;2022-11-15T16:53:36;1.92;;;0.80;;
70832;SDS011;58452;59.418;17.962;2022-11-15T16:56:01;4.15;;;0.70;;
70832;SDS011;58452;59.418;17.962;2022-11-15T16:58:27;1.30;;;0.50;;
70832;SDS011;58452;59.418;17.962;2022-11-15T17:00:53;1.67;;;0.60;;
70832;SDS011;58452;59.418;17.962;2022-11-15T17:03:20;3.88;;;0.80;;
70832;SDS011;58452;59.418;17.962;2022-11-15T17:05:47;1.20;;;0.80;;
70832;SDS011;58452;59.418;17.962;2022-11-15T17:08:13;4.47;;;2.30;;
70832;SDS011;58452;59.418;17.962;2022-11-15T17:10:39;1.67;;;0.73;;
70832;SDS011;58452;59.418;17.962;2022-11-15T17:13:11;3.13;;;1.10;;
70832;SDS011;58452;59.418;17.962;2022-11-15T17:15:37;2.33;;;0.70;;
70832;SDS011;58452;59.418;17.962;2022-11-15T17:18:03;2.15;;;0.80;;
70832;SDS011;58452;59.418;17.962;2022-11-15T17:20:29;2.28;;;1.17;;
70832;SDS011;58452;59.418;17.962;2022-11-15T17:22:54;1.17;;;0.80;;
70832;SDS011;58452;59.418;17.962;2022-11-15T17:25:20;1.08;;;0.70;;
70832;SDS011;58452;59.418;17.962;2022-11-15T17:27:45;1.40;;;0.65;;
70832;SDS011;58452;59.418;17.962;2022-11-15T17:30:12;0.90;;;0.73;;
70832;SDS011;58452;59.418;17.962;2022-11-15T17:32:39;2.25;;;0.70;;